Time,TemperatureF,DewpointF,PressureIn,WindDirection,WindDirectionDegrees,WindSpeedMPH,WindSpeedGustMPH,Humidity,HourlyPrecipIn,Conditions,Clouds,dailyrainin,SoftwareType,DateUTC
2013-06-11 00:02:00,54.1,52.7,29.97,West,268,0.0,4.0,95,0.00,,,0.00,meteohub,2013-06-11 07:02:00,
2013-06-11 00:07:00,54.1,52.7,29.97,NW,316,1.0,5.0,95,0.00,,,0.00,meteohub,2013-06-11 07:07:00,
2013-06-11 00:12:00,54.1,52.7,29.97,SSW,198,0.0,5.0,95,0.00,,,0.00,meteohub,2013-06-11 07:12:00,
2013-06-11 00:17:00,54.0,52.5,29.97,WNW,288,1.0,5.0,95,0.00,,,0.00,meteohub,2013-06-11 07:17:00,
2013-06-11 00:22:00,54.0,52.5,29.97,WNW,303,0.0,5.0,95,0.00,,,0.00,meteohub,2013-06-11 07:22:00,
2013-06-11 00:27:00,53.8,52.3,29.97,WNW,295,0.0,5.0,95,0.00,,,0.00,meteohub,2013-06-11 07:27:00,
2013-06-11 00:33:00,53.8,52.3,29.97,WNW,295,0.0,4.0,95,0.00,,,0.00,meteohub,2013-06-11 07:33:00,
2013-06-11 00:38:00,53.6,52.2,29.98,NNW,328,0.0,4.0,95,0.00,,,0.00,meteohub,2013-06-11 07:38:00,
2013-06-11 00:43:00,53.6,52.2,29.98,WNW,296,3.0,4.0,95,0.00,,,0.00,meteohub,2013-06-11 07:43:00,
2013-06-11 00:48:00,53.6,52.2,29.98,WNW,295,1.0,4.0,95,0.00,,,0.00,meteohub,2013-06-11 07:48:00,
2013-06-11 00:53:00,53.4,52.0,29.98,NW,312,0.0,5.0,95,0.00,,,0.00,meteohub,2013-06-11 07:53:00,
2013-06-11 00:58:00,53.6,52.2,29.98,NNW,346,0.0,5.0,95,0.00,,,0.00,meteohub,2013-06-11 07:58:00,
2013-06-11 01:03:00,53.6,52.2,29.98,NNW,345,1.0,5.0,95,0.00,,,0.00,meteohub,2013-06-11 08:03:00,
2013-06-11 01:08:00,53.4,52.0,29.98,South,190,0.0,5.0,95,0.00,,,0.00,meteohub,2013-06-11 08:08:00,
2013-06-11 01:13:00,53.4,52.0,29.98,WNW,302,0.0,5.0,95,0.00,,,0.00,meteohub,2013-06-11 08:13:00,
2013-06-11 01:18:00,53.4,52.0,29.98,SSW,202,0.0,5.0,95,0.00,,,0.00,meteohub,2013-06-11 08:18:00,
2013-06-11 01:23:00,53.4,52.0,29.97,SSW,203,0.0,5.0,95,0.00,,,0.00,meteohub,2013-06-11 08:23:00,
2013-06-11 01:28:00,53.4,52.0,29.97,SW,218,1.0,4.0,95,0.00,,,0.00,meteohub,2013-06-11 08:28:00,
2013-06-11 01:33:00,53.4,52.0,29.97,WNW,293,0.0,3.0,95,0.00,,,0.00,meteohub,2013-06-11 08:33:00,
2013-06-11 01:38:00,53.6,52.2,29.97,SSW,211,1.0,4.0,95,0.00,,,0.00,meteohub,2013-06-11 08:38:00,
2013-06-11 01:43:00,53.8,52.3,29.97,North,5,0.0,4.0,95,0.00,,,0.00,meteohub,2013-06-11 08:43:00,
2013-06-11 01:48:00,53.8,52.3,29.97,North,355,0.0,4.0,95,0.00,,,0.00,meteohub,2013-06-11 08:48:00,
2013-06-11 01:53:00,53.8,52.3,29.98,North,355,0.0,3.0,95,0.00,,,0.00,meteohub,2013-06-11 08:53:00,
2013-06-11 01:58:00,53.8,52.3,29.97,North,355,0.0,3.0,95,0.00,,,0.00,meteohub,2013-06-11 08:58:00,
2013-06-11 02:03:00,53.8,52.3,29.97,WNW,303,1.0,3.0,95,0.00,,,0.00,meteohub,2013-06-11 09:03:00,
2013-06-11 02:08:00,53.8,52.3,29.97,WNW,300,0.0,5.0,95,0.00,,,0.00,meteohub,2013-06-11 09:08:00,
2013-06-11 02:13:00,53.8,52.3,29.97,NNW,333,0.0,5.0,95,0.00,,,0.00,meteohub,2013-06-11 09:13:00,
2013-06-11 02:18:00,53.8,52.3,29.97,NW,319,0.0,5.0,95,0.00,,,0.00,meteohub,2013-06-11 09:18:00,
2013-06-11 02:23:00,53.8,52.3,29.97,NW,319,0.0,4.0,95,0.00,,,0.00,meteohub,2013-06-11 09:23:00,
2013-06-11 02:28:00,53.8,52.3,29.97,SE,146,0.0,4.0,95,0.00,,,0.00,meteohub,2013-06-11 09:28:00,
2013-06-11 02:33:00,53.8,52.3,29.97,SE,145,0.0,4.0,95,0.00,,,0.00,meteohub,2013-06-11 09:33:00,
2013-06-11 02:38:00,53.8,52.3,29.97,SW,231,0.0,3.0,95,0.00,,,0.00,meteohub,2013-06-11 09:38:00,
2013-06-11 02:43:00,53.6,52.2,29.97,WSW,252,0.0,4.0,95,0.00,,,0.00,meteohub,2013-06-11 09:43:00,
2013-06-11 02:48:00,53.8,52.3,29.97,SSW,207,2.0,4.0,95,0.00,,,0.00,meteohub,2013-06-11 09:48:00,
2013-06-11 02:53:00,53.8,52.3,29.96,WSW,250,0.0,3.0,95,0.00,,,0.00,meteohub,2013-06-11 09:53:00,
2013-06-11 02:58:00,53.8,52.3,29.96,NW,306,3.0,3.0,95,0.00,,,0.00,meteohub,2013-06-11 09:58:00,
2013-06-11 03:03:00,53.8,52.3,29.96,NNW,340,0.0,6.0,95,0.00,,,0.00,meteohub,2013-06-11 10:03:00,
2013-06-11 03:08:00,53.6,52.2,29.96,North,5,2.0,6.0,95,0.00,,,0.00,meteohub,2013-06-11 10:08:00,
2013-06-11 03:13:00,53.4,52.0,29.96,North,355,1.0,6.0,95,0.00,,,0.00,meteohub,2013-06-11 10:13:00,
2013-06-11 03:18:00,53.2,51.8,29.96,West,269,1.0,4.0,95,0.00,,,0.00,meteohub,2013-06-11 10:18:00,
2013-06-11 03:23:00,53.2,51.8,29.96,West,273,0.0,4.0,95,0.00,,,0.00,meteohub,2013-06-11 10:23:00,
2013-06-11 03:28:00,53.2,52.2,29.96,WSW,244,0.0,4.0,96,0.00,,,0.00,meteohub,2013-06-11 10:28:00,
2013-06-11 03:33:00,53.2,52.2,29.96,WSW,244,0.0,4.0,96,0.00,,,0.00,meteohub,2013-06-11 10:33:00,
2013-06-11 03:38:00,53.2,52.2,29.96,WSW,244,0.0,4.0,96,0.00,,,0.00,meteohub,2013-06-11 10:38:00,
2013-06-11 03:43:00,53.2,52.2,29.96,WNW,293,0.0,2.0,96,0.00,,,0.00,meteohub,2013-06-11 10:43:00,
2013-06-11 03:48:00,53.2,52.2,29.96,SW,236,0.0,4.0,96,0.00,,,0.00,meteohub,2013-06-11 10:48:00,
2013-06-11 03:53:00,53.2,52.2,29.96,SW,234,0.0,4.0,96,0.00,,,0.00,meteohub,2013-06-11 10:53:00,
2013-06-11 03:58:00,53.2,52.2,29.96,WSW,242,1.0,4.0,96,0.00,,,0.00,meteohub,2013-06-11 10:58:00,
2013-06-11 04:04:00,53.2,52.2,29.96,SSW,210,0.0,3.0,96,0.00,,,0.00,meteohub,2013-06-11 11:04:00,
2013-06-11 04:09:00,53.1,52.0,29.96,West,267,2.0,3.0,96,0.00,,,0.00,meteohub,2013-06-11 11:09:00,
2013-06-11 04:14:00,53.1,52.0,29.96,West,267,0.0,4.0,96,0.00,,,0.00,meteohub,2013-06-11 11:14:00,
2013-06-11 04:19:00,53.2,52.2,29.96,WNW,292,0.0,4.0,96,0.00,,,0.00,meteohub,2013-06-11 11:19:00,
2013-06-11 04:24:00,53.2,52.2,29.96,NW,322,0.0,4.0,96,0.00,,,0.00,meteohub,2013-06-11 11:24:00,
2013-06-11 04:29:00,53.1,52.0,29.96,NW,323,0.0,4.0,96,0.00,,,0.00,meteohub,2013-06-11 11:29:00,
2013-06-11 04:34:00,53.1,52.0,29.96,WNW,302,1.0,5.0,96,0.00,,,0.00,meteohub,2013-06-11 11:34:00,
2013-06-11 04:39:00,53.1,52.0,29.96,NNW,335,3.0,5.0,96,0.00,,,0.00,meteohub,2013-06-11 11:39:00,
2013-06-11 04:44:00,53.1,52.0,29.96,North,355,4.0,5.0,96,0.00,,,0.00,meteohub,2013-06-11 11:44:00,
2013-06-11 04:49:00,52.9,51.8,29.95,WNW,285,1.0,6.0,96,0.00,,,0.00,meteohub,2013-06-11 11:49:00,
2013-06-11 04:54:00,52.9,51.8,29.95,NNE,13,2.0,6.0,96,0.00,,,0.00,meteohub,2013-06-11 11:54:00,
2013-06-11 04:59:00,52.9,51.8,29.96,WNW,294,2.0,6.0,96,0.00,,,0.00,meteohub,2013-06-11 11:59:00,
2013-06-11 05:04:00,52.9,51.8,29.96,WNW,296,0.0,6.0,96,0.00,,,0.00,meteohub,2013-06-11 12:04:00,
2013-06-11 05:09:00,52.9,51.8,29.96,WNW,288,1.0,5.0,96,0.00,,,0.00,meteohub,2013-06-11 12:09:00,
2013-06-11 05:14:00,52.9,51.8,29.96,North,355,0.0,4.0,96,0.00,,,0.00,meteohub,2013-06-11 12:14:00,
2013-06-11 05:19:00,52.7,51.6,29.96,NNW,327,1.0,4.0,96,0.00,,,0.00,meteohub,2013-06-11 12:19:00,
2013-06-11 05:24:00,52.7,51.6,29.96,NNW,327,1.0,6.0,96,0.00,,,0.00,meteohub,2013-06-11 12:24:00,
2013-06-11 05:29:00,52.9,51.8,29.97,NNW,327,0.0,6.0,96,0.00,,,0.00,meteohub,2013-06-11 12:29:00,
2013-06-11 05:34:00,52.9,51.8,29.97,NNW,335,4.0,4.0,96,0.00,,,0.00,meteohub,2013-06-11 12:34:00,
2013-06-11 05:39:00,52.9,51.8,29.97,NNW,327,4.0,5.0,96,0.00,,,0.00,meteohub,2013-06-11 12:39:00,
2013-06-11 05:44:00,52.9,51.8,29.97,NNW,330,0.0,7.0,96,0.00,,,0.00,meteohub,2013-06-11 12:44:00,
2013-06-11 05:49:00,52.9,51.8,29.97,North,355,3.0,7.0,96,0.00,,,0.00,meteohub,2013-06-11 12:49:00,
2013-06-11 05:54:00,52.9,51.8,29.97,North,0,0.0,7.0,96,0.00,,,0.00,meteohub,2013-06-11 12:54:00,
2013-06-11 05:59:00,52.9,51.8,29.97,NNW,347,1.0,5.0,96,0.00,,,0.00,meteohub,2013-06-11 12:59:00,
2013-06-11 06:04:00,52.9,51.8,29.97,NW,316,1.0,5.0,96,0.00,,,0.00,meteohub,2013-06-11 13:04:00,
2013-06-11 06:09:00,52.9,51.8,29.97,NNW,331,1.0,5.0,96,0.00,,,0.00,meteohub,2013-06-11 13:09:00,
2013-06-11 06:14:00,52.9,51.8,29.98,North,355,2.0,5.0,96,0.00,,,0.00,meteohub,2013-06-11 13:14:00,
2013-06-11 06:19:00,52.9,51.8,29.98,North,350,0.0,5.0,96,0.00,,,0.00,meteohub,2013-06-11 13:19:00,
2013-06-11 06:24:00,52.9,51.8,29.98,NNW,338,0.0,8.0,96,0.00,,,0.00,meteohub,2013-06-11 13:24:00,
2013-06-11 06:29:00,52.9,51.8,29.98,NNW,337,5.0,8.0,96,0.00,,,0.00,meteohub,2013-06-11 13:29:00,
2013-06-11 06:34:00,52.9,51.8,29.98,NNW,338,2.0,8.0,96,0.00,,,0.00,meteohub,2013-06-11 13:34:00,
2013-06-11 06:39:00,52.9,51.8,29.98,NW,310,1.0,6.0,96,0.00,,,0.00,meteohub,2013-06-11 13:39:00,
2013-06-11 06:44:00,52.9,51.8,29.98,WNW,293,0.0,6.0,96,0.00,,,0.00,meteohub,2013-06-11 13:44:00,
2013-06-11 06:49:00,52.9,51.8,29.98,North,355,1.0,6.0,96,0.00,,,0.00,meteohub,2013-06-11 13:49:00,
2013-06-11 06:54:00,52.9,51.8,29.98,NNW,347,1.0,5.0,96,0.00,,,0.00,meteohub,2013-06-11 13:54:00,
2013-06-11 06:59:00,52.9,51.8,29.98,NNW,332,2.0,4.0,96,0.00,,,0.00,meteohub,2013-06-11 13:59:00,
2013-06-11 07:04:00,52.9,51.8,29.98,NNW,332,0.0,4.0,96,0.00,,,0.00,meteohub,2013-06-11 14:04:00,
2013-06-11 07:09:00,52.9,51.8,29.98,NW,319,2.0,3.0,96,0.00,,,0.00,meteohub,2013-06-11 14:09:00,
2013-06-11 07:14:00,53.1,52.2,29.98,NNW,331,1.0,4.0,97,0.00,,,0.00,meteohub,2013-06-11 14:14:00,
2013-06-11 07:19:00,52.9,51.8,29.99,WNW,295,1.0,4.0,96,0.00,,,0.00,meteohub,2013-06-11 14:19:00,
2013-06-11 07:24:00,52.9,51.8,29.99,NW,319,2.0,6.0,96,0.00,,,0.00,meteohub,2013-06-11 14:24:00,
2013-06-11 07:29:00,52.9,52.0,29.99,NW,324,1.0,6.0,97,0.00,,,0.00,meteohub,2013-06-11 14:29:00,
2013-06-11 07:34:00,52.9,52.0,29.99,NNW,338,0.0,7.0,97,0.00,,,0.00,meteohub,2013-06-11 14:34:00,
2013-06-11 07:39:00,52.9,52.0,29.99,NNW,333,2.0,7.0,97,0.00,,,0.00,meteohub,2013-06-11 14:39:00,
2013-06-11 07:44:00,52.9,52.0,29.99,NNW,342,3.0,6.0,97,0.00,,,0.00,meteohub,2013-06-11 14:44:00,
2013-06-11 07:49:00,52.9,52.0,30.00,NNW,333,2.0,6.0,97,0.00,,,0.00,meteohub,2013-06-11 14:49:00,
2013-06-11 07:54:00,52.9,52.0,30.00,NW,310,2.0,7.0,97,0.00,,,0.00,meteohub,2013-06-11 14:54:00,
2013-06-11 07:59:00,52.9,52.0,30.00,NW,314,2.0,7.0,97,0.00,,,0.00,meteohub,2013-06-11 14:59:00,
2013-06-11 08:04:00,52.9,52.0,30.00,NNW,333,3.0,7.0,97,0.00,,,0.00,meteohub,2013-06-11 15:04:00,
2013-06-11 08:09:00,52.9,52.0,30.00,NNW,332,2.0,7.0,97,0.00,,,0.00,meteohub,2013-06-11 15:09:00,
2013-06-11 08:14:00,52.9,52.0,30.00,NNW,333,2.0,7.0,97,0.00,,,0.00,meteohub,2013-06-11 15:14:00,
2013-06-11 08:20:00,52.9,52.0,30.01,NNW,338,4.0,9.0,97,0.00,,,0.00,meteohub,2013-06-11 15:20:00,
2013-06-11 08:24:00,52.9,52.0,30.01,NNW,333,4.0,9.0,97,0.00,,,0.00,meteohub,2013-06-11 15:24:00,
2013-06-11 08:29:00,52.9,52.0,30.01,North,355,1.0,9.0,97,0.00,,,0.00,meteohub,2013-06-11 15:29:00,
2013-06-11 08:35:00,52.9,52.0,30.01,NNW,328,1.0,7.0,97,0.00,,,0.00,meteohub,2013-06-11 15:35:00,
2013-06-11 08:40:00,52.9,52.0,30.01,NW,318,2.0,6.0,97,0.00,,,0.00,meteohub,2013-06-11 15:40:00,
2013-06-11 08:45:00,52.9,52.0,30.01,NW,314,0.0,7.0,97,0.00,,,0.00,meteohub,2013-06-11 15:45:00,
2013-06-11 08:50:00,53.1,52.2,30.02,North,10,3.0,7.0,97,0.00,,,0.00,meteohub,2013-06-11 15:50:00,
2013-06-11 08:55:00,53.1,52.2,30.01,NW,312,2.0,7.0,97,0.00,,,0.00,meteohub,2013-06-11 15:55:00,
2013-06-11 09:00:00,53.1,52.2,30.02,NNW,333,4.0,6.0,97,0.00,,,0.00,meteohub,2013-06-11 16:00:00,
2013-06-11 09:05:00,53.1,52.2,30.02,NNW,331,4.0,6.0,97,0.00,,,0.00,meteohub,2013-06-11 16:05:00,
2013-06-11 09:10:00,53.1,52.2,30.02,NNW,327,0.0,6.0,97,0.00,,,0.00,meteohub,2013-06-11 16:10:00,
2013-06-11 09:15:00,53.2,52.3,30.02,NNW,337,0.0,7.0,97,0.00,,,0.00,meteohub,2013-06-11 16:15:00,
2013-06-11 09:20:00,53.2,52.3,30.02,NNW,342,4.0,7.0,97,0.00,,,0.00,meteohub,2013-06-11 16:20:00,
2013-06-11 09:25:00,53.4,52.5,30.02,South,180,2.0,7.0,97,0.00,,,0.00,meteohub,2013-06-11 16:25:00,
2013-06-11 09:30:00,53.8,52.9,30.02,NW,316,6.0,7.0,97,0.00,,,0.00,meteohub,2013-06-11 16:30:00,
2013-06-11 09:35:00,54.0,52.9,30.02,SW,221,0.0,7.0,96,0.00,,,0.00,meteohub,2013-06-11 16:35:00,
2013-06-11 09:40:00,54.1,53.1,30.02,WNW,302,0.0,6.0,96,0.00,,,0.00,meteohub,2013-06-11 16:40:00,
2013-06-11 09:45:00,54.3,53.2,30.02,NNW,327,5.0,6.0,96,0.00,,,0.00,meteohub,2013-06-11 16:45:00,
2013-06-11 09:50:00,54.7,53.2,30.02,WNW,298,6.0,6.0,95,0.00,,,0.00,meteohub,2013-06-11 16:50:00,
2013-06-11 09:55:00,55.0,53.6,30.02,NW,308,2.0,7.0,95,0.00,,,0.00,meteohub,2013-06-11 16:55:00,
2013-06-11 10:00:00,55.2,53.6,30.02,SW,223,2.0,7.0,94,0.00,,,0.00,meteohub,2013-06-11 17:00:00,
2013-06-11 10:05:00,55.6,53.2,30.02,WNW,298,2.0,7.0,92,0.00,,,0.00,meteohub,2013-06-11 17:05:00,
2013-06-11 10:10:00,55.8,53.2,30.02,NW,312,0.0,7.0,91,0.00,,,0.00,meteohub,2013-06-11 17:10:00,
2013-06-11 10:15:00,56.3,53.4,30.02,North,355,4.0,7.0,90,0.00,,,0.00,meteohub,2013-06-11 17:15:00,
2013-06-11 10:20:00,56.5,52.9,30.02,NNW,342,3.0,7.0,88,0.00,,,0.00,meteohub,2013-06-11 17:20:00,
2013-06-11 10:25:00,56.7,53.1,30.02,WNW,292,3.0,6.0,88,0.00,,,0.00,meteohub,2013-06-11 17:25:00,
2013-06-11 10:30:00,56.8,53.1,30.02,SSW,210,0.0,6.0,87,0.00,,,0.00,meteohub,2013-06-11 17:30:00,
2013-06-11 10:35:00,57.6,53.4,30.02,NW,325,0.0,6.0,86,0.00,,,0.00,meteohub,2013-06-11 17:35:00,
2013-06-11 10:40:00,57.6,53.1,30.02,SSE,159,0.0,5.0,85,0.00,,,0.00,meteohub,2013-06-11 17:40:00,
2013-06-11 10:45:00,57.0,52.9,30.02,SW,235,3.0,7.0,86,0.00,,,0.00,meteohub,2013-06-11 17:45:00,
2013-06-11 10:50:00,57.2,53.1,30.02,NW,309,3.0,7.0,86,0.00,,,0.00,meteohub,2013-06-11 17:50:00,
2013-06-11 10:55:00,57.0,52.2,30.02,NNW,336,9.0,9.0,84,0.00,,,0.00,meteohub,2013-06-11 17:55:00,
2013-06-11 11:00:00,57.9,53.1,30.02,NNE,13,1.0,11.0,84,0.00,,,0.00,meteohub,2013-06-11 18:00:00,
2013-06-11 11:05:00,57.9,52.5,30.03,WNW,296,2.0,11.0,82,0.00,,,0.00,meteohub,2013-06-11 18:05:00,
2013-06-11 11:10:00,58.1,52.3,30.03,WNW,290,4.0,11.0,81,0.00,,,0.00,meteohub,2013-06-11 18:10:00,
2013-06-11 11:15:00,57.9,52.5,30.03,SW,221,0.0,8.0,82,0.00,,,0.00,meteohub,2013-06-11 18:15:00,
2013-06-11 11:20:00,58.6,53.2,30.03,North,5,0.0,10.0,82,0.00,,,0.00,meteohub,2013-06-11 18:20:00,
2013-06-11 11:25:00,58.6,52.5,30.03,NW,318,2.0,10.0,80,0.00,,,0.00,meteohub,2013-06-11 18:25:00,
2013-06-11 11:30:00,58.3,52.9,30.03,NW,315,4.0,10.0,82,0.00,,,0.00,meteohub,2013-06-11 18:30:00,
2013-06-11 11:35:00,58.3,53.1,30.03,WNW,290,5.0,7.0,83,0.00,,,0.00,meteohub,2013-06-11 18:35:00,
2013-06-11 11:40:00,58.6,53.2,30.03,SW,226,2.0,7.0,82,0.00,,,0.00,meteohub,2013-06-11 18:40:00,
2013-06-11 11:45:00,59.2,53.1,30.03,NE,34,1.0,7.0,80,0.00,,,0.00,meteohub,2013-06-11 18:45:00,
2013-06-11 11:50:00,59.4,52.9,30.03,East,96,2.0,7.0,79,0.00,,,0.00,meteohub,2013-06-11 18:50:00,
2013-06-11 11:55:00,59.7,52.9,30.03,South,173,2.0,8.0,78,0.00,,,0.00,meteohub,2013-06-11 18:55:00,
2013-06-11 12:00:00,59.4,52.9,30.03,SW,219,2.0,9.0,79,0.00,,,0.00,meteohub,2013-06-11 19:00:00,
2013-06-11 12:06:00,60.3,53.1,30.03,SSE,162,2.0,10.0,77,0.00,,,0.00,meteohub,2013-06-11 19:06:00,
2013-06-11 12:11:00,59.5,52.7,30.03,NW,315,2.0,10.0,78,0.00,,,0.00,meteohub,2013-06-11 19:11:00,
2013-06-11 12:16:00,60.3,52.7,30.03,SW,226,1.0,7.0,76,0.00,,,0.00,meteohub,2013-06-11 19:16:00,
2013-06-11 12:21:00,60.3,53.1,30.03,WSW,250,3.0,8.0,77,0.00,,,0.00,meteohub,2013-06-11 19:21:00,
2013-06-11 12:26:00,59.5,52.0,30.03,NNW,337,2.0,9.0,76,0.00,,,0.00,meteohub,2013-06-11 19:26:00,
2013-06-11 12:31:00,59.2,52.3,30.02,NW,315,5.0,9.0,78,0.00,,,0.00,meteohub,2013-06-11 19:31:00,
2013-06-11 12:36:00,59.4,52.9,30.03,SSW,196,0.0,9.0,79,0.00,,,0.00,meteohub,2013-06-11 19:36:00,
2013-06-11 12:41:00,59.5,52.7,30.02,NW,321,6.0,9.0,78,0.00,,,0.00,meteohub,2013-06-11 19:41:00,
2013-06-11 12:46:00,60.6,53.4,30.02,SW,217,0.0,8.0,77,0.00,,,0.00,meteohub,2013-06-11 19:46:00,
2013-06-11 12:51:00,60.8,53.2,30.02,NW,304,1.0,8.0,76,0.00,,,0.00,meteohub,2013-06-11 19:51:00,
2013-06-11 12:56:00,60.4,52.9,30.02,NW,311,4.0,11.0,76,0.00,,,0.00,meteohub,2013-06-11 19:56:00,
2013-06-11 13:01:00,60.1,52.9,30.02,SSW,209,3.0,11.0,77,0.00,,,0.00,meteohub,2013-06-11 20:01:00,
2013-06-11 13:06:00,60.6,53.8,30.02,SSW,197,5.0,11.0,78,0.00,,,0.00,meteohub,2013-06-11 20:06:00,
2013-06-11 13:11:00,60.4,53.6,30.02,NW,310,0.0,8.0,78,0.00,,,0.00,meteohub,2013-06-11 20:11:00,
2013-06-11 13:16:00,60.6,53.4,30.02,NNE,23,4.0,8.0,77,0.00,,,0.00,meteohub,2013-06-11 20:16:00,
2013-06-11 13:21:00,60.1,53.6,30.02,NW,324,2.0,11.0,79,0.00,,,0.00,meteohub,2013-06-11 20:21:00,
2013-06-11 13:26:00,60.4,53.6,30.02,WNW,293,4.0,11.0,78,0.00,,,0.00,meteohub,2013-06-11 20:26:00,
2013-06-11 13:31:00,60.4,54.0,30.02,NW,314,5.0,11.0,79,0.00,,,0.00,meteohub,2013-06-11 20:31:00,
2013-06-11 13:36:00,60.6,54.5,30.01,West,267,2.0,8.0,80,0.00,,,0.00,meteohub,2013-06-11 20:36:00,
2013-06-11 13:41:00,60.8,54.0,30.01,North,5,7.0,9.0,78,0.00,,,0.00,meteohub,2013-06-11 20:41:00,
2013-06-11 13:46:00,61.0,54.1,30.01,NNW,340,5.0,9.0,78,0.00,,,0.00,meteohub,2013-06-11 20:46:00,
2013-06-11 13:51:00,60.8,54.0,30.01,WNW,283,9.0,9.0,78,0.00,,,0.00,meteohub,2013-06-11 20:51:00,
2013-06-11 13:56:00,60.6,53.8,30.01,West,266,3.0,9.0,78,0.00,,,0.00,meteohub,2013-06-11 20:56:00,
2013-06-11 14:01:00,60.8,54.0,30.01,NNW,330,1.0,9.0,78,0.00,,,0.00,meteohub,2013-06-11 21:01:00,
2013-06-11 14:06:00,61.5,54.3,30.01,SW,223,3.0,13.0,77,0.00,,,0.00,meteohub,2013-06-11 21:06:00,
2013-06-11 14:11:00,62.1,55.0,30.01,WNW,303,2.0,13.0,78,0.00,,,0.00,meteohub,2013-06-11 21:11:00,
2013-06-11 14:16:00,61.7,54.5,30.00,WNW,292,2.0,13.0,77,0.00,,,0.00,meteohub,2013-06-11 21:16:00,
2013-06-11 14:21:00,61.5,54.7,30.00,East,82,2.0,9.0,78,0.00,,,0.00,meteohub,2013-06-11 21:21:00,
2013-06-11 14:26:00,62.1,54.3,30.00,NNW,329,1.0,9.0,76,0.00,,,0.00,meteohub,2013-06-11 21:26:00,
2013-06-11 14:31:00,61.3,54.1,30.00,NW,304,1.0,9.0,77,0.00,,,0.00,meteohub,2013-06-11 21:31:00,
2013-06-11 14:36:00,61.9,54.9,30.00,NW,321,1.0,10.0,78,0.00,,,0.00,meteohub,2013-06-11 21:36:00,
2013-06-11 14:42:00,61.3,54.1,30.00,West,269,5.0,15.0,77,0.00,,,0.00,meteohub,2013-06-11 21:42:00,
2013-06-11 14:47:00,61.2,54.7,29.99,NW,304,3.0,15.0,79,0.00,,,0.00,meteohub,2013-06-11 21:47:00,
2013-06-11 14:52:00,61.2,54.3,29.99,West,267,2.0,15.0,78,0.00,,,0.00,meteohub,2013-06-11 21:52:00,
2013-06-11 14:57:00,61.2,54.7,29.99,NW,313,6.0,12.0,79,0.00,,,0.00,meteohub,2013-06-11 21:57:00,
2013-06-11 15:02:00,61.0,54.7,29.99,WSW,250,3.0,12.0,80,0.00,,,0.00,meteohub,2013-06-11 22:02:00,
2013-06-11 15:07:00,62.1,55.0,29.99,SSE,162,4.0,12.0,78,0.00,,,0.00,meteohub,2013-06-11 22:07:00,
2013-06-11 15:12:00,62.4,55.0,29.99,WNW,300,2.0,12.0,77,0.00,,,0.00,meteohub,2013-06-11 22:12:00,
2013-06-11 15:17:00,62.1,54.3,29.99,NW,317,5.0,12.0,76,0.00,,,0.00,meteohub,2013-06-11 22:17:00,
2013-06-11 15:22:00,61.0,54.1,29.99,NW,309,3.0,10.0,78,0.00,,,0.00,meteohub,2013-06-11 22:22:00,
2013-06-11 15:27:00,61.3,54.1,29.99,SSW,208,5.0,10.0,77,0.00,,,0.00,meteohub,2013-06-11 22:27:00,
2013-06-11 15:32:00,61.2,54.3,29.99,NW,321,1.0,10.0,78,0.00,,,0.00,meteohub,2013-06-11 22:32:00,
2013-06-11 15:37:00,61.5,54.3,29.99,WSW,250,3.0,10.0,77,0.00,,,0.00,meteohub,2013-06-11 22:37:00,
2013-06-11 15:42:00,61.2,54.0,29.99,WNW,302,7.0,9.0,77,0.00,,,0.00,meteohub,2013-06-11 22:42:00,
2013-06-11 15:47:00,61.3,54.1,29.99,WNW,292,6.0,9.0,77,0.00,,,0.00,meteohub,2013-06-11 22:47:00,
2013-06-11 15:52:00,61.0,53.8,29.99,SW,225,1.0,9.0,77,0.00,,,0.00,meteohub,2013-06-11 22:52:00,
2013-06-11 15:57:00,61.0,53.8,29.99,NW,308,5.0,9.0,77,0.00,,,0.00,meteohub,2013-06-11 22:57:00,
2013-06-11 16:02:00,61.0,53.8,29.99,NNW,335,3.0,9.0,77,0.00,,,0.00,meteohub,2013-06-11 23:02:00,
2013-06-11 16:07:00,61.3,54.1,29.99,NW,325,4.0,9.0,77,0.00,,,0.00,meteohub,2013-06-11 23:07:00,
2013-06-11 16:12:00,61.0,53.8,29.99,North,5,3.0,11.0,77,0.00,,,0.00,meteohub,2013-06-11 23:12:00,
2013-06-11 16:17:00,60.4,53.6,29.99,WNW,286,1.0,11.0,78,0.00,,,0.00,meteohub,2013-06-11 23:17:00,
2013-06-11 16:22:00,60.3,53.1,29.98,NNW,344,1.0,11.0,77,0.00,,,0.00,meteohub,2013-06-11 23:22:00,
2013-06-11 16:27:00,60.4,53.2,29.98,NNE,26,1.0,14.0,77,0.00,,,0.00,meteohub,2013-06-11 23:27:00,
2013-06-11 16:32:00,60.6,53.4,29.98,West,263,6.0,14.0,77,0.00,,,0.00,meteohub,2013-06-11 23:32:00,
2013-06-11 16:37:00,60.4,52.9,29.98,NW,325,7.0,13.0,76,0.00,,,0.00,meteohub,2013-06-11 23:37:00,
2013-06-11 16:42:00,60.4,53.2,29.98,WNW,288,5.0,13.0,77,0.00,,,0.00,meteohub,2013-06-11 23:42:00,
2013-06-11 16:47:00,60.3,52.7,29.98,North,355,1.0,11.0,76,0.00,,,0.00,meteohub,2013-06-11 23:47:00,
2013-06-11 16:52:00,61.2,53.2,29.98,North,9,2.0,11.0,75,0.00,,,0.00,meteohub,2013-06-11 23:52:00,
2013-06-11 16:57:00,61.2,53.2,29.98,NW,306,4.0,9.0,75,0.00,,,0.00,meteohub,2013-06-11 23:57:00,
2013-06-11 17:02:00,60.6,52.7,29.98,WNW,294,8.0,12.0,75,0.00,,,0.00,meteohub,2013-06-12 00:02:00,
2013-06-11 17:07:00,60.6,53.1,29.98,NNW,327,4.0,12.0,76,0.00,,,0.00,meteohub,2013-06-12 00:07:00,
2013-06-11 17:12:00,60.1,52.9,29.97,WNW,284,0.0,12.0,77,0.00,,,0.00,meteohub,2013-06-12 00:12:00,
2013-06-11 17:17:00,59.5,52.3,29.97,West,275,2.0,10.0,77,0.00,,,0.00,meteohub,2013-06-12 00:17:00,
2013-06-11 17:22:00,59.4,52.5,29.97,NNE,32,1.0,10.0,78,0.00,,,0.00,meteohub,2013-06-12 00:22:00,
2013-06-11 17:27:00,58.8,52.3,29.97,WNW,284,1.0,8.0,79,0.00,,,0.00,meteohub,2013-06-12 00:27:00,
2013-06-11 17:32:00,58.5,52.3,29.97,West,277,2.0,8.0,80,0.00,,,0.00,meteohub,2013-06-12 00:32:00,
2013-06-11 17:38:00,57.9,51.8,29.97,SW,218,3.0,10.0,80,0.00,,,0.00,meteohub,2013-06-12 00:38:00,
2013-06-11 17:43:00,57.7,52.0,29.97,NNW,327,0.0,10.0,81,0.00,,,0.00,meteohub,2013-06-12 00:43:00,
2013-06-11 17:48:00,57.7,52.0,29.97,West,281,0.0,10.0,81,0.00,,,0.00,meteohub,2013-06-12 00:48:00,
2013-06-11 17:53:00,57.4,51.6,29.97,WSW,244,3.0,10.0,81,0.00,,,0.00,meteohub,2013-06-12 00:53:00,
2013-06-11 17:58:00,57.0,51.6,29.97,NNW,329,6.0,9.0,82,0.00,,,0.00,meteohub,2013-06-12 00:58:00,
2013-06-11 18:03:00,57.4,52.3,29.96,WSW,242,3.0,10.0,83,0.00,,,0.00,meteohub,2013-06-12 01:03:00,
2013-06-11 18:08:00,57.9,52.2,29.96,NNW,346,5.0,10.0,81,0.00,,,0.00,meteohub,2013-06-12 01:08:00,
2013-06-11 18:13:00,57.9,51.8,29.96,NNW,334,2.0,9.0,80,0.00,,,0.00,meteohub,2013-06-12 01:13:00,
2013-06-11 18:18:00,57.7,51.6,29.96,SW,233,3.0,10.0,80,0.00,,,0.00,meteohub,2013-06-12 01:18:00,
2013-06-11 18:23:00,57.4,51.6,29.96,SE,136,0.0,10.0,81,0.00,,,0.00,meteohub,2013-06-12 01:23:00,
2013-06-11 18:28:00,57.4,51.6,29.96,East,99,1.0,9.0,81,0.00,,,0.00,meteohub,2013-06-12 01:28:00,
2013-06-11 18:33:00,57.0,51.6,29.95,West,265,4.0,8.0,82,0.00,,,0.00,meteohub,2013-06-12 01:33:00,
2013-06-11 18:38:00,56.5,51.4,29.96,North,5,3.0,9.0,83,0.00,,,0.00,meteohub,2013-06-12 01:38:00,
2013-06-11 18:43:00,56.3,51.4,29.95,WNW,301,2.0,10.0,84,0.00,,,0.00,meteohub,2013-06-12 01:43:00,
2013-06-11 18:48:00,56.1,51.4,29.95,NW,316,2.0,10.0,84,0.00,,,0.00,meteohub,2013-06-12 01:48:00,
2013-06-11 18:53:00,56.1,51.4,29.95,West,279,5.0,10.0,84,0.00,,,0.00,meteohub,2013-06-12 01:53:00,
2013-06-11 18:58:00,56.1,51.6,29.95,ENE,67,2.0,10.0,85,0.00,,,0.00,meteohub,2013-06-12 01:58:00,
2013-06-11 19:03:00,56.1,51.6,29.94,North,355,4.0,10.0,85,0.00,,,0.00,meteohub,2013-06-12 02:03:00,
2013-06-11 19:08:00,56.7,52.2,29.95,SE,130,1.0,10.0,85,0.00,,,0.00,meteohub,2013-06-12 02:08:00,
2013-06-11 19:13:00,57.0,52.2,29.95,SSE,167,1.0,10.0,84,0.00,,,0.00,meteohub,2013-06-12 02:13:00,
2013-06-11 19:18:00,57.4,52.3,29.95,NNW,330,3.0,9.0,83,0.00,,,0.00,meteohub,2013-06-12 02:18:00,
2013-06-11 19:23:00,57.2,52.2,29.95,NNW,328,3.0,10.0,83,0.00,,,0.00,meteohub,2013-06-12 02:23:00,
2013-06-11 19:28:00,57.0,52.0,29.95,West,275,5.0,10.0,83,0.00,,,0.00,meteohub,2013-06-12 02:28:00,
2013-06-11 19:33:00,56.7,51.6,29.95,WNW,300,3.0,10.0,83,0.00,,,0.00,meteohub,2013-06-12 02:33:00,
2013-06-11 19:38:00,56.5,51.6,29.94,SW,217,4.0,10.0,84,0.00,,,0.00,meteohub,2013-06-12 02:38:00,
2013-06-11 19:43:00,56.3,51.4,29.94,West,260,2.0,8.0,84,0.00,,,0.00,meteohub,2013-06-12 02:43:00,
2013-06-11 19:48:00,56.3,51.4,29.94,SW,215,5.0,8.0,84,0.00,,,0.00,meteohub,2013-06-12 02:48:00,
2013-06-11 19:53:00,56.1,51.4,29.94,NNW,342,0.0,8.0,84,0.00,,,0.00,meteohub,2013-06-12 02:53:00,
2013-06-11 19:58:00,55.9,51.3,29.94,West,263,5.0,10.0,84,0.00,,,0.00,meteohub,2013-06-12 02:58:00,
2013-06-11 20:03:00,55.9,51.4,29.94,NW,308,5.0,10.0,85,0.00,,,0.00,meteohub,2013-06-12 03:03:00,
2013-06-11 20:08:00,55.9,51.4,29.94,West,264,5.0,8.0,85,0.00,,,0.00,meteohub,2013-06-12 03:08:00,
2013-06-11 20:13:00,55.8,51.3,29.94,NW,304,2.0,6.0,85,0.00,,,0.00,meteohub,2013-06-12 03:13:00,
2013-06-11 20:18:00,55.6,51.1,29.94,WNW,300,3.0,6.0,85,0.00,,,0.00,meteohub,2013-06-12 03:18:00,
2013-06-11 20:23:00,55.2,51.1,29.94,SSW,202,4.0,9.0,86,0.00,,,0.00,meteohub,2013-06-12 03:23:00,
2013-06-11 20:28:00,55.0,50.9,29.94,NW,322,2.0,9.0,86,0.00,,,0.00,meteohub,2013-06-12 03:28:00,
2013-06-11 20:33:00,54.9,51.1,29.94,West,273,2.0,9.0,87,0.00,,,0.00,meteohub,2013-06-12 03:33:00,
2013-06-11 20:38:00,54.9,51.1,29.94,South,187,6.0,8.0,87,0.00,,,0.00,meteohub,2013-06-12 03:38:00,
2013-06-11 20:43:00,54.7,50.9,29.94,NW,306,2.0,8.0,87,0.00,,,0.00,meteohub,2013-06-12 03:43:00,
2013-06-11 20:48:00,54.5,51.1,29.94,NNW,338,3.0,8.0,88,0.00,,,0.00,meteohub,2013-06-12 03:48:00,
2013-06-11 20:54:00,54.3,50.9,29.94,NW,313,1.0,8.0,88,0.00,,,0.00,meteohub,2013-06-12 03:54:00,
2013-06-11 20:59:00,54.1,50.7,29.94,WNW,303,4.0,5.0,88,0.00,,,0.00,meteohub,2013-06-12 03:59:00,
2013-06-11 21:01:00,54.1,50.7,29.94,South,187,4.0,4.0,88,0.00,,,0.00,meteohub,2013-06-12 04:01:00,
2013-06-11 21:02:00,54.1,50.7,29.94,South,185,4.0,4.0,88,0.00,,,0.00,meteohub,2013-06-12 04:02:00,
2013-06-11 21:07:00,54.0,50.7,29.94,West,260,2.0,6.0,89,0.00,,,0.00,meteohub,2013-06-12 04:07:00,
2013-06-11 21:12:00,53.8,50.5,29.94,SSW,200,2.0,6.0,89,0.00,,,0.00,meteohub,2013-06-12 04:12:00,
2013-06-11 21:17:00,53.8,50.5,29.94,SW,221,2.0,7.0,89,0.00,,,0.00,meteohub,2013-06-12 04:17:00,
2013-06-11 21:22:00,53.4,50.5,29.94,SSE,164,2.0,7.0,90,0.00,,,0.00,meteohub,2013-06-12 04:22:00,
2013-06-11 21:27:00,53.4,50.5,29.94,SSW,207,4.0,7.0,90,0.00,,,0.00,meteohub,2013-06-12 04:27:00,
2013-06-11 21:32:00,53.2,50.4,29.94,SSW,213,0.0,5.0,90,0.00,,,0.00,meteohub,2013-06-12 04:32:00,
2013-06-11 21:37:00,53.2,50.7,29.94,NE,37,0.0,6.0,91,0.00,,,0.00,meteohub,2013-06-12 04:37:00,
2013-06-11 21:42:00,53.2,50.7,29.95,South,178,2.0,6.0,91,0.00,,,0.00,meteohub,2013-06-12 04:42:00,
2013-06-11 21:47:00,53.2,50.7,29.95,South,174,0.0,5.0,91,0.00,,,0.00,meteohub,2013-06-12 04:47:00,
2013-06-11 21:52:00,53.2,50.7,29.95,South,175,1.0,5.0,91,0.00,,,0.00,meteohub,2013-06-12 04:52:00,
2013-06-11 21:57:00,53.2,50.7,29.95,SSE,162,3.0,5.0,91,0.00,,,0.00,meteohub,2013-06-12 04:57:00,
2013-06-11 22:02:00,53.2,50.7,29.95,SSW,207,0.0,7.0,91,0.00,,,0.00,meteohub,2013-06-12 05:02:00,
2013-06-11 22:07:00,53.2,50.7,29.95,SSW,196,0.0,7.0,91,0.00,,,0.00,meteohub,2013-06-12 05:07:00,
2013-06-11 22:12:00,53.1,50.5,29.96,South,169,2.0,7.0,91,0.00,,,0.00,meteohub,2013-06-12 05:12:00,
2013-06-11 22:17:00,53.1,50.5,29.96,ESE,110,0.0,6.0,91,0.00,,,0.00,meteohub,2013-06-12 05:17:00,
2013-06-11 22:22:00,53.1,50.5,29.96,SSE,162,1.0,6.0,91,0.00,,,0.00,meteohub,2013-06-12 05:22:00,
2013-06-11 22:27:00,52.9,50.4,29.96,SSE,155,0.0,6.0,91,0.00,,,0.00,meteohub,2013-06-12 05:27:00,
2013-06-11 22:32:00,52.9,50.5,29.95,SSE,165,2.0,6.0,92,0.00,,,0.00,meteohub,2013-06-12 05:32:00,
2013-06-11 22:37:00,52.9,50.5,29.95,South,189,3.0,6.0,92,0.00,,,0.00,meteohub,2013-06-12 05:37:00,
2013-06-11 22:42:00,52.7,50.4,29.95,South,173,3.0,7.0,92,0.00,,,0.00,meteohub,2013-06-12 05:42:00,
2013-06-11 22:47:00,52.7,50.4,29.95,SSW,212,4.0,7.0,92,0.00,,,0.00,meteohub,2013-06-12 05:47:00,
2013-06-11 22:52:00,52.5,50.2,29.95,South,175,5.0,7.0,92,0.00,,,0.00,meteohub,2013-06-12 05:52:00,
2013-06-11 22:57:00,52.5,50.2,29.95,South,180,4.0,10.0,92,0.00,,,0.00,meteohub,2013-06-12 05:57:00,
2013-06-11 23:02:00,52.5,50.2,29.95,SSW,200,5.0,10.0,92,0.00,,,0.00,meteohub,2013-06-12 06:02:00,
2013-06-11 23:07:00,52.5,50.2,29.95,SW,220,1.0,10.0,92,0.00,,,0.00,meteohub,2013-06-12 06:07:00,
2013-06-11 23:12:00,52.3,50.0,29.95,South,180,2.0,11.0,92,0.00,,,0.00,meteohub,2013-06-12 06:12:00,
2013-06-11 23:17:00,52.3,50.0,29.95,SSW,200,5.0,11.0,92,0.00,,,0.00,meteohub,2013-06-12 06:17:00,
2013-06-11 23:22:00,52.3,50.0,29.95,South,179,2.0,11.0,92,0.00,,,0.00,meteohub,2013-06-12 06:22:00,
2013-06-11 23:27:00,52.3,50.0,29.95,South,181,4.0,10.0,92,0.00,,,0.00,meteohub,2013-06-12 06:27:00,
2013-06-11 23:32:00,52.3,50.0,29.95,SW,215,7.0,10.0,92,0.00,,,0.00,meteohub,2013-06-12 06:32:00,
2013-06-11 23:37:00,52.3,50.0,29.95,SSW,204,3.0,11.0,92,0.00,,,0.00,meteohub,2013-06-12 06:37:00,
2013-06-11 23:42:00,52.3,50.4,29.95,South,173,1.0,11.0,93,0.00,,,0.00,meteohub,2013-06-12 06:42:00,
2013-06-11 23:47:00,52.3,50.4,29.95,SSE,156,0.0,11.0,93,0.00,,,0.00,meteohub,2013-06-12 06:47:00,
2013-06-11 23:52:00,52.2,50.2,29.95,SSW,195,6.0,7.0,93,0.00,,,0.00,meteohub,2013-06-12 06:52:00,
2013-06-11 23:57:00,52.2,50.2,29.95,SSW,200,3.0,7.0,93,0.00,,,0.00,meteohub,2013-06-12 06:57:00,